ADDS METAR Data INFO
IDs: Format: Raw Decoded Include TAF

Data at: 0933 UTC 11 Dec 2017

PAMD 110906Z AUTO 12033G39KT 3SM -RA BR OVC005 07/06 A2902 RMK AO2 PK WND 12038/0904 CIG 003V008 P0000
PAMD 110900Z AUTO 11032G39KT 3SM -RA BR BKN003 OVC007 07/06 A2902 RMK AO2 PK WND 12038/0859 P0000
PAMD 110857Z AUTO 12033G39KT 2 1/2SM -RA BR OVC003 07/06 A2902 RMK AO2 PK WND 12045/0818 SLP818 P0001 60006 T00670061 56005
PAMD 110823Z AUTO 12032G45KT 3SM -RA BR OVC005 07/06 A2901 RMK AO2 PK WND 12045/0818 CIG 003V009 P0000
PAMD 110819Z AUTO 12033G45KT 3SM -RA BR OVC007 07/06 A2902 RMK AO2 PK WND 12045/0818 CIG 003V009 P0000
PAMD 110803Z AUTO 12028G37KT 2 1/2SM -RA BR BKN005 OVC010 07/06 A2903 RMK AO2 PK WND 12036/0801 CIG 003V007 P0000
PAMD 110757Z AUTO 12031G43KT 3SM -RA BR OVC010 07/06 A2902 RMK AO2 PK WND 12045/0741 RAE15B38 CIG 003V012 SLP819 P0000 T00670061 400720056
PAMD 110726Z AUTO 12032G41KT 5SM BR OVC013 07/06 A2902 RMK AO2 PK WND 12041/0720 RAE15 P0000
PAMD 110714Z AUTO 12033G41KT 5SM -RA BR SCT009 OVC013 07/06 A2902 RMK AO2 PK WND 12041/0705 P0000
PAMD 110632Z AUTO 11035G42KT 3SM -RA BR OVC006 07/07 A2903 RMK AO2 PK WND 10047/0603 CIG 004V009 P0004
PAMD 110626Z AUTO 11035G42KT 2 1/2SM -RA BR OVC006 07/07 A2903 RMK AO2 PK WND 10047/0603 P0004
PAMD 110624Z AUTO 11035G42KT 3SM -RA BR OVC006 07/07 A2904 RMK AO2 PK WND 10047/0603 P0003
PAMD 110559Z AUTO 10038G49KT 1 3/4SM RA BR OVC006 07/07 A2904 RMK AO2 PK WND 10044/0558 P0001
PAMD 110357Z AUTO 09045G59KT 1 3/4SM -RA BR OVC008 06/06 A2912 RMK AO2 PK WND 09064/0306 CIG 005V010 SLP853 P0006 T00610056 $
PAMD 110257Z AUTO 09050G59KT 1 1/2SM -RA BR OVC012 06/05 A2918 RMK AO2 PK WND 09066/0231 SLP873 P0014 60039 T00560050 56089
PAMD 110242Z AUTO 09047G63KT 3SM -RA BR BKN012 OVC018 06/04 A2920 RMK AO2 PK WND 09066/0231 P0012
PAMD 110209Z AUTO 09046G61KT 1 3/4SM RA BR FEW008 OVC012 06/05 A2925 RMK AO2 PK WND 09061/0203 P0004
PAMD 110206Z AUTO 09046G61KT 1 3/4SM RA BR OVC012 06/05 A2925 RMK AO2 PK WND 09061/0203 PRESFR P0003
PAMD 110138Z AUTO 09041G57KT 2 1/2SM -RA BR OVC012 06/05 A2929 RMK AO2 PK WND 09058/0128 P0008
PAMD 110114Z AUTO 09044G53KT 2SM -RA BR OVC010 06/05 A2931 RMK AO2 PK WND 09053/0114 PRESFR P0005
PAMD 110057Z AUTO 08043G55KT 1 1/2SM -RA BR OVC010 06/05 A2935 RMK AO2 PK WND 08055/0055 CIG 007V014 PRESFR SLP931 P0011 T00610050
PAMD 102357Z AUTO 08038G50KT 2 1/2SM -RA BR OVC015 06/05 A2945 RMK AO2 PK WND 08050/2352 PRESFR SLP962 P0008 60014 T00610050 10067 20061 58100
PAMD 102321Z AUTO 09036G47KT 3SM -RA BR OVC013 06/05 A2952 RMK AO2 PK WND 08047/2319 PRESFR P0003
PAMD 102313Z AUTO 09035G44KT 2 1/2SM -RA BR BKN013 OVC023 06/05 A2953 RMK AO2 PK WND 08044/2307 PRESFR P0002
PAMD 102251Z AUTO 09034G44KT 5SM -RA BR SCT010 BKN015 OVC040 06/05 A2957 RMK AO2 PK WND 09044/2248 PRESFR P0004
PAMD 102244Z AUTO 09033G42KT 3SM -RA BR BKN009 OVC016 06/05 A2958 RMK AO2 PK WND 09042/2236 CIG 007V012 PRESFR P0004
PAMD 102157Z AUTO 09033G39KT 2 1/2SM -RA BR OVC009 07/06 A2967 RMK AO2 PK WND 08039/2153 RAB2058 CIG 007V013 PRESFR SLP037 P0002 T00670056
PAMD 102147Z AUTO 09031G38KT 2 1/2SM -RA BR OVC009 07/06 A2968 RMK AO2 PK WND 08038/2145 RAB2058 CIG 007V011 PRESFR P0002
PAMD 102117Z AUTO 09027G35KT 2 1/2SM -RA BR OVC009 07/06 A2972 RMK AO2 PK WND 09037/2058 RAB2058 CIG 006V013 P0001
PAMD 102057Z AUTO 09029G34KT 3SM BR OVC011 07/06 A2974 RMK AO2 PK WND 09034/2048 SLP063 60000 T00670056 57029
PAMD 101957Z AUTO 10024G32KT 5SM BR BKN013 OVC019 07/06 A2978 RMK AO2 PK WND 09034/1938 RAB11E26 SLP074 P0000 T00670056
PAMD 101927Z AUTO 10024G30KT 5SM BR BKN013 BKN027 OVC040 07/06 A2978 RMK AO2 PK WND 10031/1909 RAB11E26 P0000
PAMD 101916Z AUTO 10022G31KT 3SM -RA BR SCT012 BKN029 OVC040 07/06 A2979 RMK AO2 PK WND 10031/1909 RAB11 P0000
PAMD 101857Z AUTO 10020G26KT 4SM BR FEW010 OVC038 07/06 A2980 RMK AO2 PK WND 11028/1822 SLP082 T00670056
PAMD 101826Z AUTO 10021G28KT 4SM BR SCT012 SCT030 OVC036 07/05 A2982 RMK AO2 PK WND 11028/1822
PAMD 101812Z AUTO 11022G27KT 6SM BR BKN012 BKN018 OVC032 07/05 A2983 RMK AO2 PK WND 10027/1807
PAMD 101808Z AUTO 10022G27KT 6SM BR SCT012 BKN018 OVC034 07/05 A2983 RMK AO2 PK WND 10027/1807
PAMD 101757Z AUTO 11021KT 6SM BR SCT012 OVC034 07/05 A2983 RMK AO2 PK WND 11027/1746 SLP093 60000 T00670050 10067 20061 53008
PAMD 101748Z AUTO 11022KT 7SM FEW012 OVC034 07/05 A2983 RMK AO2 PK WND 11027/1746
PAMD 101745Z AUTO 11021G27KT 7SM SCT012 BKN029 OVC034 07/05 A2983 RMK AO2 PK WND 11027/1739
PAMD 101727Z AUTO 11022G27KT 6SM BR SCT012 SCT017 OVC036 07/05 A2982 RMK AO2 PK WND 11027/1719
PAMD 101723Z AUTO 11019G27KT 6SM BR SCT012 BKN017 OVC038 07/05 A2983 RMK AO2 PK WND 11027/1719
PAMD 101657Z AUTO 11021KT 7SM SCT014 OVC040 07/05 A2982 RMK AO2 PK WND 12029/1608 SLP088 T00670050
PAMD 101621Z AUTO 11019G27KT 8SM FEW013 SCT024 OVC035 06/04 A2982 RMK AO2 PK WND 12029/1608
PAMD 101609Z AUTO 12025G28KT 8SM FEW013 SCT021 OVC035 07/04 A2981 RMK AO2 PK WND 12029/1608
PAMD 101601Z AUTO 12021G25KT 8SM FEW013 BKN028 OVC035 07/04 A2982 RMK AO2
PAMD 101557Z AUTO 12018G24KT 8SM FEW019 SCT028 OVC035 07/04 A2982 RMK AO2 PK WND 13026/1509 SLP088 T00670039
PAMD 101457Z AUTO 13022KT 9SM OVC039 07/04 A2981 RMK AO2 PK WND 13027/1454 RAE01 SLP084 P0000 60000 T00670039 51032
PAMD 101407Z AUTO 13023G27KT 7SM SCT021 OVC042 07/04 A2979 RMK AO2 PK WND 13027/1406 RAE01 P0000
PAMD 101357Z AUTO 13020G27KT 9SM -RA SCT021 BKN025 OVC042 07/04 A2979 RMK AO2 PK WND 15029/1306 RAB50 SLP078 P0000 T00670044
PAMD 101227Z AUTO 15023G32KT 10SM SCT016 SCT021 OVC038 06/04 A2974 RMK AO2 PK WND 15032/1222 RAB09E21 P0000
PAMD 101159Z AUTO 14026G31KT 8SM SCT023 BKN029 OVC035 07/04 A2971 RMK AO2 PK WND 14031/1159
PAMD 101157Z AUTO 14023KT 8SM SCT023 OVC033 06/04 A2971 RMK AO2 PK WND 15037/1105 SLP052 60003 70040 T00610044 10067 20056 51077
PAMD 101138Z AUTO 15022G32KT 8SM OVC031 06/03 A2970 RMK AO2 PK WND 15037/1105
PAMD 101057Z AUTO 15030G38KT 9SM OVC024 06/03 A2966 RMK AO2 PK WND 15038/1055 SLP033 T00610033
PAMD 101013Z AUTO 15028G37KT 8SM SCT012 BKN018 OVC035 06/04 A2960 RMK AO2 PK WND 15038/1002 PRESRR
PAMD 100938Z AUTO 15030G39KT 9SM BKN014 BKN019 OVC050 06/04 A2955 RMK AO2 PK WND 15042/0901 RAE09 P0000
PAMD 100919Z AUTO 15025G34KT 8SM BKN016 OVC022 06/04 A2954 RMK AO2 PK WND 15042/0901 RAE09 PRESRR P0000
PAMD 100757Z AUTO 15030G40KT 9SM -RA OVC012 06/04 A2942 RMK AO2 PK WND 14041/0724 PRESRR SLP952 P0001 T00560044 400720050
PAMD 100626Z AUTO 13028G34KT 7SM -RA SCT004 OVC008 06/06 A2932 RMK AO2 PK WND 13038/0616 PRESRR P0001
PAMD 100455Z AUTO 11026G32KT 5SM -RA BR BKN009 BKN015 OVC042 07/07 A2924 RMK AO2 PK WND 13036/0413 CIG 006V011 P0005
PAMD 100444Z AUTO 11027G35KT 5SM -RA BR SCT009 BKN024 OVC042 07/06 A2923 RMK AO2 PK WND 13036/0413 PRESRR P0004
PAMD 100417Z AUTO 12030G36KT 5SM -RA BR OVC007 07/06 A2920 RMK AO2 PK WND 13036/0413 CIG 003V010 P0002
PAMD 100357Z AUTO 12025G28KT 4SM -RA BR OVC005 07/07 A2918 RMK AO2 PK WND 12029/0356 SLP874 P0004 T00720067
PAMD 100257Z AUTO 10020G26KT 3SM -RA BR OVC005 07/07 A2917 RMK AO2 PK WND 04033/0224 SLP867 P0006 60019 T00720067 58054
PAMD 100229Z AUTO 05024G33KT 3SM RA BR BKN009 OVC012 07/06 A2918 RMK AO2 PK WND 04033/0224 CIG 006V011 P0004
PAMD 100107Z AUTO 07026G34KT 3SM -RA BR BKN007 BKN014 OVC038 07/07 A2928 RMK AO2 PK WND 06034/0104 CIG 005V009 P0001
PAMD 100054Z AUTO 07023KT 2 1/2SM -RA BR SCT007 BKN012 OVC038 07/07 A2929 RMK AO2 PK WND 07033/0041 P0006
PAMD 100050Z AUTO 08023G33KT 3SM RA BR SCT007 BKN012 OVC039 07/06 A2929 RMK AO2 PK WND 07033/0041 P0006
PAMD 100029Z AUTO 07023G32KT 3SM -RA BR OVC007 07/07 A2931 RMK AO2 PK WND 07033/0017 CIG 003V009 P0004
PAMD 100010Z AUTO 08023G27KT 2 1/2SM RA BR BKN005 OVC013 07/07 A2931 RMK AO2 PK WND 07029/2359 VIS 1 3/4V4 P0002
PAMD 092345Z AUTO 06023G30KT 3SM -RA BR OVC005 07/07 A2933 RMK AO2 PK WND 06030/2340 P0005
PAMD 092340Z AUTO 06025G30KT 2 1/2SM -RA BR OVC005 07/07 A2934 RMK AO2 PK WND 06030/2340 P0004
PAMD 092334Z AUTO 06023G30KT 3SM -RA BR OVC005 07/07 A2934 RMK AO2 PK WND 05030/2328 P0004
PAMD 092324Z AUTO 06021G30KT 2 1/2SM RA BR OVC005 07/07 A2935 RMK AO2 PK WND 06030/2319 CIG 004V010 P0003
PAMD 092245Z AUTO 07024G29KT 4SM -RA BR OVC003 07/07 A2938 RMK AO2 PK WND 07029/2245 RAB14 P0000
PAMD 092229Z AUTO 07021G25KT 1 3/4SM -RA BR OVC005 07/07 A2940 RMK AO2 PK WND 07027/2213 RAB14 P0000
PAMD 092201Z AUTO 07020G26KT 3SM BR OVC005 07/07 A2942 RMK AO2 PK WND 07026/2158